createdAt,value
2023-05-11T00:02:10.222Z,73.44
2023-05-11T00:04:40.329Z,73.63
2023-05-11T00:07:10.277Z,73.98
2023-05-11T00:09:42.777Z,74.06
2023-05-11T00:12:13.958Z,73.76
2023-05-11T00:14:45.065Z,73.82
2023-05-11T00:17:14.777Z,73.66
2023-05-11T00:19:44.741Z,73.82
2023-05-11T00:22:14.908Z,73.84
2023-05-11T00:24:44.676Z,73.82
2023-05-11T00:27:13.938Z,73.60
2023-05-11T00:29:43.152Z,73.86
2023-05-11T00:32:12.613Z,74.03
2023-05-11T00:34:41.707Z,74.05
2023-05-11T00:37:10.573Z,74.41
2023-05-11T00:39:41.124Z,74.64
2023-05-11T00:42:12.051Z,74.44
2023-05-11T00:44:41.568Z,74.59
2023-05-11T00:47:10.695Z,74.63
2023-05-11T00:49:40.541Z,74.62
2023-05-11T00:52:10.161Z,75.07
2023-05-11T00:54:41.250Z,75.19
2023-05-11T00:57:10.512Z,74.95
2023-05-11T00:59:39.640Z,74.77
2023-05-11T01:02:09.078Z,74.75
2023-05-11T01:04:39.347Z,75.15
2023-05-11T01:07:17.569Z,74.90
2023-05-11T01:10:03.284Z,74.48
2023-05-11T01:12:53.975Z,74.04
2023-05-11T01:15:40.771Z,74.52
2023-05-11T01:18:34.684Z,75.15
2023-05-11T01:21:05.364Z,75.15
2023-05-11T01:24:12.109Z,75.10
2023-05-11T01:27:16.302Z,74.69
2023-05-11T01:29:46.380Z,74.83
2023-05-11T01:32:26.346Z,74.30
2023-05-11T01:35:19.454Z,73.76
2023-05-11T01:37:54.083Z,73.74
2023-05-11T01:40:28.609Z,73.73
2023-05-11T01:43:02.388Z,73.95
2023-05-11T01:45:36.860Z,73.82
2023-05-11T01:48:12.857Z,73.92
2023-05-11T01:50:44.266Z,73.65
2023-05-11T01:53:17.403Z,73.16
2023-05-11T01:55:48.982Z,73.10
2023-05-11T01:58:19.658Z,73.09
2023-05-11T02:00:50.252Z,73.21
2023-05-11T02:03:20.949Z,73.03
2023-05-11T02:05:52.265Z,73.04
2023-05-11T02:08:23.293Z,73.52
2023-05-11T02:10:54.166Z,73.49
2023-05-11T02:13:24.586Z,73.64
2023-05-11T02:15:57.201Z,73.73
2023-05-11T02:18:27.342Z,73.84
2023-05-11T02:20:58.824Z,74.11
2023-05-11T02:23:28.444Z,74.35
2023-05-11T02:25:58.415Z,74.42
2023-05-11T02:28:27.533Z,73.73
2023-05-11T02:31:01.171Z,73.40
2023-05-11T02:33:35.519Z,73.20
2023-05-11T02:36:06.866Z,73.05
2023-05-11T02:38:38.491Z,72.83
2023-05-11T02:41:15.576Z,72.45
2023-05-11T02:43:51.732Z,72.79
2023-05-11T02:46:30.598Z,73.17
2023-05-11T02:49:03.366Z,73.54
2023-05-11T02:51:41.936Z,73.72
2023-05-11T02:54:13.007Z,73.79
2023-05-11T02:56:43.376Z,74.14
2023-05-11T02:59:13.546Z,74.18
2023-05-11T03:01:44.256Z,74.05
2023-05-11T03:04:13.956Z,73.60
2023-05-11T03:06:43.024Z,73.64
2023-05-11T03:09:12.439Z,73.65
2023-05-11T03:11:42.846Z,73.96
2023-05-11T03:14:11.971Z,74.16
2023-05-11T03:16:42.239Z,73.67
2023-05-11T03:19:11.716Z,73.36
2023-05-11T03:21:40.742Z,73.69
2023-05-11T03:24:11.057Z,73.95
2023-05-11T03:26:42.421Z,73.75
2023-05-11T03:29:13.427Z,73.25
2023-05-11T03:31:42.773Z,72.75
2023-05-11T03:34:12.122Z,72.66
2023-05-11T03:36:42.555Z,72.37
2023-05-11T03:39:12.835Z,72.20
2023-05-11T03:41:42.778Z,71.93
2023-05-11T03:44:13.781Z,72.06
2023-05-11T03:46:46.121Z,71.98
2023-05-11T03:49:16.416Z,72.03
2023-05-11T03:51:46.310Z,72.05
2023-05-11T03:54:15.212Z,71.61
2023-05-11T03:56:43.950Z,71.74
2023-05-11T03:59:16.818Z,72.09
2023-05-11T04:01:46.045Z,72.34
2023-05-11T04:04:15.186Z,72.66
2023-05-11T04:06:44.229Z,72.95
2023-05-11T04:09:13.192Z,73.21
2023-05-11T04:11:41.851Z,73.48
2023-05-11T04:14:10.677Z,73.64
2023-05-11T04:16:39.742Z,73.67
2023-05-11T04:19:09.004Z,72.76
2023-05-11T04:21:38.310Z,72.89
2023-05-11T04:24:07.604Z,73.82
2023-05-11T04:26:36.836Z,74.52
2023-05-11T04:29:06.322Z,74.76
2023-05-11T04:31:36.089Z,74.75
2023-05-11T04:34:08.203Z,74.00
2023-05-11T04:36:37.356Z,74.08
2023-05-11T04:39:07.795Z,73.49
2023-05-11T04:41:38.292Z,72.38
2023-05-11T04:44:07.767Z,70.84
2023-05-11T04:46:39.326Z,69.74
2023-05-11T04:49:08.601Z,69.57
2023-05-11T04:51:37.763Z,69.52
2023-05-11T04:54:07.036Z,68.85
2023-05-11T04:56:41.187Z,68.35
2023-05-11T04:59:11.468Z,68.69
2023-05-11T05:01:40.765Z,68.96
2023-05-11T05:04:10.322Z,68.94
2023-05-11T05:06:39.462Z,68.75
2023-05-11T05:09:08.698Z,69.01
2023-05-11T05:11:38.537Z,69.55
2023-05-11T05:14:07.646Z,69.67
2023-05-11T05:16:36.785Z,69.89
2023-05-11T05:19:07.058Z,69.84
2023-05-11T05:21:36.382Z,70.23
2023-05-11T05:24:06.510Z,70.45
2023-05-11T05:26:36.048Z,70.61
2023-05-11T05:29:07.013Z,70.15
2023-05-11T05:31:36.386Z,69.82
2023-05-11T05:34:05.188Z,69.51
2023-05-11T05:36:34.465Z,68.39
2023-05-11T05:39:04.327Z,67.33
2023-05-11T05:41:33.747Z,66.57
2023-05-11T05:44:03.705Z,66.68
2023-05-11T05:46:32.700Z,67.01
2023-05-11T05:49:02.204Z,67.04
2023-05-11T05:51:31.973Z,66.57
2023-05-11T05:54:00.899Z,66.18
2023-05-11T05:56:29.740Z,66.34
2023-05-11T05:58:58.926Z,66.57
2023-05-11T06:01:29.026Z,66.08
2023-05-11T06:03:59.073Z,65.46
2023-05-11T06:06:28.591Z,65.21
2023-05-11T06:08:57.786Z,65.33
2023-05-11T06:11:27.884Z,65.29
2023-05-11T06:13:56.977Z,64.94
2023-05-11T06:16:27.513Z,64.96
2023-05-11T06:18:56.830Z,64.67
2023-05-11T06:21:26.710Z,64.36
2023-05-11T06:23:55.865Z,63.71
2023-05-11T06:26:25.526Z,63.05
2023-05-11T06:28:54.710Z,62.51
2023-05-11T06:31:24.723Z,62.62
2023-05-11T06:33:53.938Z,61.76
2023-05-11T06:36:22.883Z,61.44
2023-05-11T06:38:51.836Z,61.24
2023-05-11T06:41:23.048Z,61.16
2023-05-11T06:43:51.905Z,60.59
2023-05-11T06:46:23.055Z,60.18
2023-05-11T06:48:53.678Z,60.32
2023-05-11T06:51:24.693Z,60.07
2023-05-11T06:53:56.196Z,60.35
2023-05-11T06:56:26.265Z,60.22
2023-05-11T06:58:55.729Z,59.14
2023-05-11T07:01:25.365Z,57.96
2023-05-11T07:03:57.283Z,57.17
2023-05-11T07:06:26.290Z,55.49
2023-05-11T07:08:55.852Z,54.54
2023-05-11T07:11:26.076Z,53.43
2023-05-11T07:13:55.587Z,52.76
2023-05-11T07:16:26.167Z,52.70
2023-05-11T07:18:55.369Z,51.88
2023-05-11T07:21:24.856Z,50.38
2023-05-11T07:23:54.764Z,48.57
2023-05-11T07:26:23.711Z,47.49
2023-05-11T07:28:53.183Z,46.24
2023-05-11T07:31:22.650Z,45.14
2023-05-11T07:33:51.739Z,44.10
2023-05-11T07:36:20.964Z,43.43
2023-05-11T07:38:50.084Z,43.49
2023-05-11T07:41:19.754Z,43.00
2023-05-11T07:43:48.819Z,41.87
2023-05-11T07:46:17.943Z,40.11
2023-05-11T07:48:47.336Z,39.36
2023-05-11T07:51:16.562Z,38.61
2023-05-11T07:53:45.941Z,38.27
2023-05-11T07:56:15.017Z,38.44
2023-05-11T07:58:44.327Z,39.51
2023-05-11T08:01:14.339Z,39.21
2023-05-11T08:03:43.579Z,38.55
2023-05-11T08:06:12.875Z,37.87
2023-05-11T08:08:42.931Z,36.42
2023-05-11T08:11:12.240Z,35.32
2023-05-11T08:13:42.478Z,35.22
2023-05-11T08:16:13.048Z,34.66
2023-05-11T08:18:42.443Z,34.00
2023-05-11T08:21:12.306Z,33.85
2023-05-11T08:23:42.935Z,32.90
2023-05-11T08:26:15.118Z,32.27
2023-05-11T08:28:45.347Z,32.01
2023-05-11T08:31:15.770Z,31.39
2023-05-11T08:33:45.991Z,31.54
2023-05-11T08:36:16.652Z,31.31
2023-05-11T08:38:46.414Z,31.02
2023-05-11T08:41:16.084Z,30.56
2023-05-11T08:43:49.315Z,31.45
2023-05-11T08:46:23.124Z,32.04
2023-05-11T08:48:52.412Z,32.03
2023-05-11T08:51:21.777Z,30.81
2023-05-11T08:53:50.792Z,30.14
2023-05-11T08:56:23.078Z,29.63
2023-05-11T08:58:56.245Z,29.88
2023-05-11T09:01:31.163Z,30.57
2023-05-11T09:04:00.694Z,30.64
2023-05-11T09:06:31.407Z,30.79
2023-05-11T09:09:00.725Z,30.15
2023-05-11T09:11:31.862Z,30.01
2023-05-11T09:14:01.051Z,29.85
2023-05-11T09:16:37.061Z,29.23
2023-05-11T09:19:07.142Z,28.74
2023-05-11T09:21:39.198Z,26.73
2023-05-11T09:24:14.096Z,26.23
2023-05-11T09:26:43.448Z,26.61
2023-05-11T09:29:12.777Z,27.28
2023-05-11T09:31:44.457Z,28.38
2023-05-11T09:34:17.345Z,28.58
2023-05-11T09:36:52.232Z,28.88
2023-05-11T09:42:15.172Z,27.28
2023-05-11T09:44:46.480Z,26.82
2023-05-11T09:47:19.766Z,27.25
2023-05-11T09:49:50.011Z,27.54
2023-05-11T09:52:23.080Z,27.14
2023-05-11T09:54:53.074Z,26.38
2023-05-11T09:57:27.792Z,26.06
2023-05-11T10:00:00.965Z,25.39
2023-05-11T10:02:33.768Z,24.71
2023-05-11T10:05:13.888Z,23.94
2023-05-11T10:07:43.682Z,23.30
2023-05-11T10:10:14.058Z,23.14
2023-05-11T10:12:43.577Z,23.89
2023-05-11T10:15:14.810Z,25.97
2023-05-11T10:17:45.135Z,26.51
2023-05-11T10:20:15.426Z,27.98
2023-05-11T10:22:46.775Z,29.15
2023-05-11T10:25:17.342Z,30.83
2023-05-11T10:27:47.611Z,34.32
2023-05-11T10:30:17.575Z,36.23
2023-05-11T10:32:47.734Z,38.20
2023-05-11T10:35:17.168Z,40.93
2023-05-11T10:37:47.114Z,43.11
2023-05-11T10:40:16.611Z,44.45
2023-05-11T10:43:14.702Z,45.82
2023-05-11T10:46:14.825Z,46.96
2023-05-11T10:48:50.848Z,47.19
2023-05-11T10:51:26.192Z,47.31
2023-05-11T10:54:22.791Z,46.98
2023-05-11T10:57:30.517Z,46.40
2023-05-11T11:00:10.836Z,43.72
2023-05-11T11:02:40.604Z,39.72
2023-05-11T11:05:14.614Z,37.09
2023-05-11T11:08:05.457Z,35.43
2023-05-11T11:10:41.098Z,35.45
2023-05-11T11:13:14.842Z,36.47
2023-05-11T11:15:58.001Z,37.04
2023-05-11T11:18:28.914Z,38.05
2023-05-11T11:20:59.756Z,38.35
2023-05-11T11:23:44.937Z,38.93
2023-05-11T11:26:19.431Z,39.39
2023-05-11T11:29:03.536Z,39.76
2023-05-11T11:31:35.103Z,40.14
2023-05-11T11:34:44.380Z,40.42
2023-05-11T11:37:15.552Z,40.45
2023-05-11T11:39:45.518Z,39.94
2023-05-11T11:42:20.401Z,38.32
2023-05-11T11:44:49.984Z,36.77
2023-05-11T11:47:24.222Z,34.78
2023-05-11T11:49:55.675Z,33.65
2023-05-11T11:52:29.822Z,32.28
2023-05-11T11:55:05.735Z,31.86
2023-05-11T11:57:36.246Z,32.36
2023-05-11T12:00:09.591Z,31.52
2023-05-11T12:02:44.235Z,32.22
2023-05-11T12:05:21.285Z,31.72
2023-05-11T12:07:52.867Z,31.11
2023-05-11T12:10:24.538Z,30.35
2023-05-11T12:12:59.917Z,30.81
2023-05-11T12:15:32.766Z,30.24
2023-05-11T12:18:03.740Z,30.26
2023-05-11T12:20:33.976Z,30.21
2023-05-11T12:23:03.772Z,30.48
2023-05-11T12:25:33.985Z,30.68
2023-05-11T12:28:03.415Z,31.55
2023-05-11T12:30:35.117Z,31.92
2023-05-11T12:33:10.023Z,31.81
2023-05-11T12:35:41.640Z,31.58
2023-05-11T12:38:12.119Z,30.54
2023-05-11T12:40:50.836Z,29.31
2023-05-11T12:43:22.395Z,27.65
2023-05-11T12:45:52.240Z,27.47
2023-05-11T12:48:22.992Z,29.00
2023-05-11T12:50:53.357Z,29.41
2023-05-11T12:53:25.120Z,30.22
2023-05-11T12:56:01.658Z,31.57
2023-05-11T12:58:44.155Z,33.71
2023-05-11T13:01:14.761Z,33.11
2023-05-11T13:03:48.620Z,33.63
2023-05-11T13:06:21.282Z,32.97
2023-05-11T13:08:50.466Z,33.05
2023-05-11T13:11:29.346Z,33.21
2023-05-11T13:13:58.646Z,33.12
2023-05-11T13:16:30.990Z,33.21
2023-05-11T13:19:05.882Z,34.40
2023-05-11T13:21:35.379Z,35.59
2023-05-11T13:24:06.323Z,36.15
2023-05-11T13:26:35.861Z,37.65
2023-05-11T13:29:11.256Z,38.04
2023-05-11T13:31:47.724Z,38.92
2023-05-11T13:34:19.725Z,39.98
2023-05-11T13:36:50.088Z,41.20
2023-05-11T13:39:20.273Z,41.12
2023-05-11T13:41:53.137Z,40.86
2023-05-11T13:44:27.023Z,41.89
2023-05-11T13:46:57.120Z,42.42
2023-05-11T13:49:27.070Z,43.20
2023-05-11T13:51:58.511Z,43.41
2023-05-11T13:54:33.467Z,43.01
2023-05-11T13:57:04.592Z,42.89
2023-05-11T13:59:36.492Z,42.53
2023-05-11T14:02:07.352Z,43.33
2023-05-11T14:04:37.747Z,44.12
2023-05-11T14:07:07.725Z,44.23
2023-05-11T14:09:38.183Z,44.02
2023-05-11T14:12:07.784Z,44.51
2023-05-11T14:14:38.148Z,44.90
2023-05-11T14:17:07.455Z,44.59
2023-05-11T14:19:37.029Z,44.63
2023-05-11T14:22:07.013Z,45.33
2023-05-11T14:24:37.681Z,45.98
2023-05-11T14:27:07.003Z,46.66
2023-05-11T14:29:39.562Z,46.85
2023-05-11T14:32:12.164Z,47.15
2023-05-11T14:34:43.251Z,47.12
2023-05-11T14:37:13.978Z,47.08
2023-05-11T14:39:43.332Z,46.70
2023-05-11T14:42:12.413Z,46.47
2023-05-11T14:44:42.484Z,46.78
2023-05-11T14:47:11.431Z,45.79
2023-05-11T14:49:40.868Z,45.39
2023-05-11T14:52:11.346Z,45.47
2023-05-11T14:54:43.954Z,45.59
2023-05-11T14:57:14.080Z,45.18
2023-05-11T14:59:55.472Z,44.88
2023-05-11T15:02:31.244Z,44.50
2023-05-11T15:05:02.289Z,44.18
2023-05-11T15:07:33.604Z,44.00
2023-05-11T15:10:05.698Z,43.89
2023-05-11T15:12:36.551Z,43.90
2023-05-11T15:15:06.725Z,43.74
2023-05-11T15:17:39.103Z,44.07
2023-05-11T15:20:11.296Z,44.13
2023-05-11T15:22:42.074Z,44.77
2023-05-11T15:25:15.100Z,44.90
2023-05-11T15:27:46.644Z,45.45
2023-05-11T15:30:17.373Z,46.48
2023-05-11T15:32:47.960Z,46.53
2023-05-11T15:35:17.894Z,46.49
2023-05-11T15:37:47.726Z,46.92
2023-05-11T15:40:17.279Z,46.93
2023-05-11T15:42:46.757Z,46.80
2023-05-11T15:45:16.087Z,46.64
2023-05-11T15:47:45.417Z,46.80
2023-05-11T15:50:16.181Z,47.19
2023-05-11T15:52:45.497Z,47.43
2023-05-11T15:55:15.920Z,46.89
2023-05-11T15:57:45.932Z,47.05
2023-05-11T16:00:16.922Z,47.28
2023-05-11T16:02:49.375Z,47.47
2023-05-11T16:05:19.045Z,47.50
2023-05-11T16:07:48.537Z,47.85
2023-05-11T16:10:19.053Z,47.84
2023-05-11T16:12:48.835Z,48.11
2023-05-11T16:15:18.243Z,48.11
2023-05-11T16:17:49.124Z,48.78
2023-05-11T16:20:18.438Z,49.15
2023-05-11T16:22:48.867Z,49.03
2023-05-11T16:25:18.624Z,48.91
2023-05-11T16:27:48.269Z,49.09
2023-05-11T16:30:24.924Z,49.32
2023-05-11T16:32:55.243Z,49.63
2023-05-11T16:35:24.589Z,49.44
2023-05-11T16:37:57.870Z,49.08
2023-05-11T16:40:27.425Z,49.08
2023-05-11T16:42:59.407Z,49.33
2023-05-11T16:45:29.500Z,49.38
2023-05-11T16:47:59.073Z,49.79
2023-05-11T16:50:28.750Z,50.08
2023-05-11T16:52:59.614Z,50.55
2023-05-11T16:55:31.472Z,50.76
2023-05-11T16:58:02.711Z,50.87
2023-05-11T17:00:34.298Z,51.25
2023-05-11T17:03:04.205Z,51.92
2023-05-11T17:05:34.296Z,52.26
2023-05-11T17:08:05.700Z,52.35
2023-05-11T17:10:36.959Z,52.83
2023-05-11T17:13:06.336Z,53.39
2023-05-11T17:15:35.919Z,53.36
2023-05-11T17:18:07.898Z,53.34
2023-05-11T17:20:37.851Z,53.06
2023-05-11T17:23:07.587Z,52.89
2023-05-11T17:25:37.259Z,52.72
2023-05-11T17:28:06.679Z,52.77
2023-05-11T17:30:55.990Z,52.86
2023-05-11T17:33:25.353Z,53.12
2023-05-11T17:35:54.801Z,53.48
2023-05-11T17:38:23.958Z,53.93
2023-05-11T17:40:53.579Z,55.39
2023-05-11T17:43:23.750Z,55.72
2023-05-11T17:45:53.691Z,56.04
2023-05-11T17:48:24.703Z,56.65
2023-05-11T17:50:54.060Z,56.98
2023-05-11T17:53:23.760Z,57.99
2023-05-11T17:55:53.699Z,58.45
2023-05-11T17:58:23.507Z,59.26
2023-05-11T18:00:52.884Z,57.73
2023-05-11T18:03:22.766Z,57.67
2023-05-11T18:05:52.823Z,57.40
2023-05-11T18:08:22.923Z,57.59
2023-05-11T18:10:52.579Z,57.42
2023-05-11T18:13:23.738Z,56.67
2023-05-11T18:16:01.312Z,55.57
2023-05-11T18:18:32.661Z,56.06
2023-05-11T18:21:09.948Z,57.33
2023-05-11T18:23:39.928Z,58.09
2023-05-11T18:26:09.314Z,58.53
2023-05-11T18:28:39.015Z,58.21
2023-05-11T18:31:08.934Z,58.13
2023-05-11T18:33:38.377Z,58.35
2023-05-11T18:36:08.623Z,60.19
2023-05-11T18:38:37.942Z,62.07
2023-05-11T18:41:09.239Z,62.68
2023-05-11T18:43:39.082Z,62.66
2023-05-11T18:46:10.352Z,63.36
2023-05-11T18:48:39.782Z,64.04
2023-05-11T18:51:12.245Z,64.88
2023-05-11T18:53:42.966Z,65.28
2023-05-11T18:56:13.148Z,64.99
2023-05-11T18:58:44.024Z,65.28
2023-05-11T19:01:13.708Z,66.01
2023-05-11T19:03:43.437Z,66.33
2023-05-11T19:06:15.092Z,65.94
2023-05-11T19:08:44.489Z,64.27
2023-05-11T19:11:14.996Z,63.36
2023-05-11T19:13:44.837Z,63.26
2023-05-11T19:16:14.346Z,63.16
2023-05-11T19:18:44.200Z,62.89
2023-05-11T19:21:15.430Z,62.57
2023-05-11T19:23:45.654Z,63.01
2023-05-11T19:26:18.090Z,62.67
2023-05-11T19:28:48.138Z,62.35
2023-05-11T19:31:17.962Z,61.99
2023-05-11T19:33:47.939Z,62.74
2023-05-11T19:36:17.767Z,63.31
2023-05-11T19:38:48.687Z,63.07
2023-05-11T19:41:20.097Z,62.52
2023-05-11T19:43:51.075Z,62.32
2023-05-11T19:46:22.805Z,62.58
2023-05-11T19:48:53.829Z,63.37
2023-05-11T19:51:27.644Z,63.75
2023-05-11T19:53:56.888Z,63.82
2023-05-11T19:56:25.793Z,64.38
2023-05-11T19:58:55.086Z,64.98
2023-05-11T20:01:24.200Z,65.18
2023-05-11T20:03:53.736Z,65.00
2023-05-11T20:06:23.628Z,65.04
2023-05-11T20:08:53.279Z,65.01
2023-05-11T20:11:22.350Z,64.48
2023-05-11T20:13:54.421Z,64.39
2023-05-11T20:16:24.523Z,63.92
2023-05-11T20:18:54.258Z,63.60
2023-05-11T20:21:24.698Z,63.72
2023-05-11T20:23:53.849Z,63.73
2023-05-11T20:26:23.239Z,63.94
2023-05-11T20:28:53.174Z,64.34
2023-05-11T20:31:23.356Z,64.74
2023-05-11T20:36:26.167Z,64.80
2023-05-11T20:38:56.218Z,64.75
2023-05-11T20:41:25.978Z,65.11
2023-05-11T20:43:56.337Z,65.56
2023-05-11T20:46:25.746Z,65.23
2023-05-11T20:48:54.561Z,64.96
2023-05-11T20:51:24.385Z,65.29
2023-05-11T20:53:54.086Z,65.53
2023-05-11T20:56:24.312Z,65.45
2023-05-11T20:58:55.678Z,64.86
2023-05-11T21:01:25.440Z,64.37
2023-05-11T21:03:54.840Z,64.41
2023-05-11T21:06:24.768Z,64.91
2023-05-11T21:08:53.658Z,65.26
2023-05-11T21:11:23.783Z,65.30
2023-05-11T21:13:53.555Z,65.38
2023-05-11T21:16:22.949Z,65.70
2023-05-11T21:18:55.159Z,65.79
2023-05-11T21:21:25.383Z,65.75
2023-05-11T21:23:55.189Z,66.08
2023-05-11T21:26:24.599Z,66.15
2023-05-11T21:28:54.167Z,66.50
2023-05-11T21:31:23.737Z,66.48
2023-05-11T21:33:53.267Z,66.27
2023-05-11T21:36:23.303Z,66.41
2023-05-11T21:38:52.471Z,66.61
2023-05-11T21:41:21.608Z,66.53
2023-05-11T21:43:51.510Z,66.70
2023-05-11T21:46:20.365Z,67.05
2023-05-11T21:48:50.204Z,67.26
2023-05-11T21:51:20.591Z,67.11
2023-05-11T21:53:51.680Z,66.46
2023-05-11T21:56:21.120Z,66.53
2023-05-11T21:58:50.495Z,66.60
2023-05-11T22:01:19.564Z,66.49
2023-05-11T22:03:48.862Z,66.08
2023-05-11T22:06:17.791Z,65.83
2023-05-11T22:08:46.863Z,66.08
2023-05-11T22:11:15.880Z,66.12
2023-05-11T22:13:45.092Z,66.05
2023-05-11T22:16:14.611Z,65.79
2023-05-11T22:18:44.025Z,65.75
2023-05-11T22:21:13.996Z,66.13
2023-05-11T22:23:43.192Z,66.59
2023-05-11T22:26:12.145Z,67.13
2023-05-11T22:28:41.790Z,67.16
2023-05-11T22:31:10.703Z,67.46
2023-05-11T22:33:39.728Z,67.90
2023-05-11T22:36:09.409Z,68.03
2023-05-11T22:38:38.932Z,68.19
2023-05-11T22:41:08.083Z,68.01
2023-05-11T22:43:36.847Z,67.78
2023-05-11T22:46:06.829Z,67.75
2023-05-11T22:48:35.820Z,67.30
2023-05-11T22:51:06.863Z,66.53
2023-05-11T22:53:37.869Z,66.57
2023-05-11T22:56:07.908Z,66.91
2023-05-11T22:58:37.372Z,67.20
2023-05-11T23:01:06.551Z,67.22
2023-05-11T23:03:36.268Z,67.44
2023-05-11T23:06:05.880Z,67.90
2023-05-11T23:08:34.887Z,68.28
2023-05-11T23:11:04.978Z,68.30
2023-05-11T23:13:34.024Z,68.06
2023-05-11T23:16:06.850Z,67.98
2023-05-11T23:18:37.876Z,68.17
2023-05-11T23:21:07.453Z,68.28
2023-05-11T23:23:37.324Z,68.21
2023-05-11T23:26:06.380Z,67.72
2023-05-11T23:28:35.869Z,67.75
2023-05-11T23:31:04.990Z,68.22
2023-05-11T23:33:34.090Z,68.31
2023-05-11T23:36:03.642Z,68.26
2023-05-11T23:38:33.042Z,68.45
2023-05-11T23:41:02.420Z,68.97
2023-05-11T23:43:32.107Z,69.21
2023-05-11T23:46:03.163Z,68.97
2023-05-11T23:48:32.562Z,68.54
2023-05-11T23:51:01.667Z,68.50
2023-05-11T23:53:30.898Z,68.49
2023-05-11T23:56:00.283Z,68.16
2023-05-11T23:58:29.307Z,68.04
